NTAA Airport Information

Runway Information
Runway 04 Length 11360 ft width 148 ft
Elevation 5 ft Threshold 1120 ft Heading 54
Runway 22 Length 11360 ft Width 148 ft
Elevation 5 ft Threshold 390 ft Heading 234
Airport Frequencies
Type APP Name APP Frequency 118.1 MHZ
Type ATIS Name ATIS Frequency 128.8 MHZ
Type GND Name GND Frequency 121.9 MHZ
Type TWR Name TWR Frequency 118.1 MHZ
Airport Navaids
Type NDB Name Tahiti Faaa Frequency 305 KHZ
Type VOR-DME Name Tahiti Faaa Frequency 112900 KHZ
Airport Weather Information & NOTAM
ADDS - METARS form results

(0122 UTC 26 February 2018)
 
METAR text: NTAA 260100Z 29008KT 9999 FEW028 31/24 Q1013 NOSIG
Conditions at: NTAA (TAHITI-FAAA POLY, WS) observed 0100 UTC 26 February 2018
Temperature: 31.0°C (88°F)
Dewpoint: 24.0°C (75°F) [RH = 66%]
Pressure (altimeter): 29.91 inches Hg (1013.0 mb)
Winds: from the WNW (290 degrees) at 9 MPH (8 knots; 4.2 m/s)
Visibility: 6 or more miles (10+ km)
Ceiling: at least 12,000 feet AGL
Clouds: few clouds at 2800 feet AGL
Weather: no significant weather observed at this time

METAR text: NTAA 260030Z 29007KT 9999 FEW028 31/24 Q1013 NOSIG
Conditions at: NTAA (TAHITI-FAAA POLY, WS) observed 0030 UTC 26 February 2018
Temperature: 31.0°C (88°F)
Dewpoint: 24.0°C (75°F) [RH = 66%]
Pressure (altimeter): 29.91 inches Hg (1013.0 mb)
Winds: from the WNW (290 degrees) at 8 MPH (7 knots; 3.6 m/s)
Visibility: 6 or more miles (10+ km)
Ceiling: at least 12,000 feet AGL
Clouds: few clouds at 2800 feet AGL
Weather: no significant weather observed at this time